createdAt,value
2022-09-17T00:01:01.587Z,10.40
2022-09-17T00:03:36.371Z,10.30
2022-09-17T00:06:09.238Z,10.20
2022-09-17T00:08:41.757Z,10.20
2022-09-17T00:11:16.987Z,10.20
2022-09-17T00:13:50.959Z,10.20
2022-09-17T00:16:41.043Z,10.20
2022-09-17T00:19:24.031Z,10.10
2022-09-17T00:21:58.140Z,10.10
2022-09-17T00:24:31.120Z,10.10
2022-09-17T00:27:00.770Z,10.00
2022-09-17T00:32:16.893Z,10.00
2022-09-17T00:34:50.810Z,10.00
2022-09-17T00:37:19.953Z,10.00
2022-09-17T00:39:52.593Z,9.90
2022-09-17T00:42:27.376Z,9.90
2022-09-17T00:44:58.215Z,9.90
2022-09-17T00:47:50.852Z,9.80
2022-09-17T00:50:42.341Z,9.80
2022-09-17T00:53:23.181Z,9.80
2022-09-17T00:56:09.925Z,9.80
2022-09-17T00:58:41.468Z,9.80
2022-09-17T01:01:11.544Z,9.80
2022-09-17T01:03:42.023Z,9.80
2022-09-17T01:06:44.737Z,9.70
2022-09-17T01:09:46.162Z,9.70
2022-09-17T01:12:28.952Z,9.70
2022-09-17T01:15:34.946Z,9.60
2022-09-17T01:18:57.259Z,9.60
2022-09-17T01:22:00.838Z,9.60
2022-09-17T01:25:03.927Z,9.60
2022-09-17T01:28:02.180Z,9.50
2022-09-17T01:31:17.908Z,9.40
2022-09-17T01:34:05.694Z,9.40
2022-09-17T01:36:49.302Z,9.40
2022-09-17T01:39:42.048Z,9.30
2022-09-17T01:42:25.823Z,9.20
2022-09-17T01:45:23.908Z,9.10
2022-09-17T01:48:02.589Z,9.10
2022-09-17T01:50:48.120Z,9.00
2022-09-17T01:53:20.930Z,8.90
2022-09-17T01:55:56.917Z,8.90
2022-09-17T01:58:31.791Z,8.90
2022-09-17T02:01:08.832Z,8.80
2022-09-17T02:03:40.236Z,8.70
2022-09-17T02:06:24.320Z,8.70
2022-09-17T02:09:02.098Z,8.60
2022-09-17T02:11:31.335Z,8.60
2022-09-17T02:14:21.956Z,8.50
2022-09-17T02:16:57.983Z,8.50
2022-09-17T02:19:34.818Z,8.50
2022-09-17T02:22:23.961Z,8.50
2022-09-17T02:25:25.350Z,8.40
2022-09-17T02:28:28.855Z,8.40
2022-09-17T02:30:59.660Z,8.40
2022-09-17T02:33:36.408Z,8.30
2022-09-17T02:36:06.614Z,8.30
2022-09-17T02:38:42.506Z,8.20
2022-09-17T02:41:19.935Z,8.20
2022-09-17T02:44:19.193Z,8.20
2022-09-17T02:46:52.280Z,8.10
2022-09-17T02:50:22.282Z,8.10
2022-09-17T02:53:28.056Z,8.10
2022-09-17T02:56:49.528Z,8.00
2022-09-17T02:59:40.391Z,8.00
2022-09-17T03:02:26.566Z,7.90
2022-09-17T03:05:00.857Z,7.80
2022-09-17T03:08:19.293Z,7.90
2022-09-17T03:10:53.702Z,7.80
2022-09-17T03:13:44.959Z,7.90
2022-09-17T03:16:21.195Z,7.80
2022-09-17T03:19:05.762Z,7.80
2022-09-17T03:21:33.512Z,7.70
2022-09-17T03:24:01.626Z,7.70
2022-09-17T03:26:29.793Z,7.70
2022-09-17T03:29:11.843Z,7.70
2022-09-17T03:31:45.829Z,7.70
2022-09-17T03:34:18.314Z,7.60
2022-09-17T03:36:58.157Z,7.60
2022-09-17T03:39:33.273Z,7.60
2022-09-17T03:42:09.180Z,7.60
2022-09-17T03:44:41.356Z,7.50
2022-09-17T03:47:19.878Z,7.50
2022-09-17T03:49:47.879Z,7.50
2022-09-17T03:52:17.112Z,7.40
2022-09-17T03:54:45.618Z,7.50
2022-09-17T03:57:15.894Z,7.40
2022-09-17T03:59:51.616Z,7.40
2022-09-17T04:02:26.360Z,7.40
2022-09-17T04:05:03.965Z,7.40
2022-09-17T04:07:32.934Z,7.30
2022-09-17T04:10:05.505Z,7.30
2022-09-17T04:12:40.496Z,7.30
2022-09-17T04:15:14.752Z,7.30
2022-09-17T04:17:48.266Z,7.10
2022-09-17T04:20:16.338Z,7.30
2022-09-17T04:22:45.715Z,7.30
2022-09-17T04:25:16.465Z,7.50
2022-09-17T04:27:48.093Z,7.50
2022-09-17T04:30:22.746Z,7.20
2022-09-17T04:32:54.013Z,7.20
2022-09-17T04:35:21.947Z,7.10
2022-09-17T04:38:02.313Z,7.10
2022-09-17T04:40:44.285Z,7.40
2022-09-17T04:43:17.486Z,7.10
2022-09-17T04:45:50.719Z,7.20
2022-09-17T04:48:20.621Z,7.10
2022-09-17T04:50:53.960Z,7.10
2022-09-17T04:53:27.441Z,7.10
2022-09-17T04:55:55.508Z,7.10
2022-09-17T04:58:23.859Z,7.00
2022-09-17T05:00:57.791Z,7.50
2022-09-17T05:03:39.400Z,7.00
2022-09-17T05:06:11.185Z,7.00
2022-09-17T05:08:43.409Z,7.00
2022-09-17T05:11:11.415Z,7.00
2022-09-17T05:13:43.795Z,6.90
2022-09-17T05:16:12.984Z,6.90
2022-09-17T05:18:40.923Z,6.90
2022-09-17T05:21:14.807Z,7.30
2022-09-17T05:23:47.345Z,6.90
2022-09-17T05:26:23.186Z,6.90
2022-09-17T05:29:21.837Z,6.90
2022-09-17T05:31:54.447Z,6.80
2022-09-17T05:34:24.878Z,6.90
2022-09-17T05:36:55.819Z,6.90
2022-09-17T05:39:36.048Z,6.90
2022-09-17T05:42:07.834Z,6.90
2022-09-17T05:44:40.388Z,6.90
2022-09-17T05:47:08.325Z,6.90
2022-09-17T05:49:50.828Z,7.10
2022-09-17T05:52:32.580Z,6.90
2022-09-17T05:55:03.308Z,6.90
2022-09-17T05:57:39.324Z,6.90
2022-09-17T06:00:12.626Z,6.90
2022-09-17T06:02:42.702Z,6.90
2022-09-17T06:05:18.305Z,6.90
2022-09-17T06:07:52.430Z,7.00
2022-09-17T06:10:29.875Z,7.00
2022-09-17T06:13:03.748Z,7.10
2022-09-17T06:15:42.850Z,7.00
2022-09-17T06:18:10.658Z,7.10
2022-09-17T06:20:42.850Z,7.10
2022-09-17T06:23:15.994Z,7.10
2022-09-17T06:25:56.966Z,7.20
2022-09-17T06:28:27.622Z,7.20
2022-09-17T06:31:15.772Z,7.20
2022-09-17T06:33:43.822Z,7.20
2022-09-17T06:36:15.787Z,7.30
2022-09-17T06:38:44.006Z,7.40
2022-09-17T06:41:12.637Z,7.40
2022-09-17T06:43:56.203Z,7.60
2022-09-17T06:46:28.270Z,7.60
2022-09-17T06:49:07.852Z,7.70
2022-09-17T06:51:46.288Z,7.90
2022-09-17T06:54:21.893Z,8.20
2022-09-17T06:56:53.252Z,8.60
2022-09-17T06:59:24.982Z,9.10
2022-09-17T07:01:53.926Z,9.60
2022-09-17T07:04:21.807Z,10.10
2022-09-17T07:06:49.520Z,10.60
2022-09-17T07:09:45.361Z,11.10
2022-09-17T07:12:16.334Z,11.60
2022-09-17T07:14:48.083Z,12.20
2022-09-17T07:17:21.685Z,12.70
2022-09-17T07:20:17.094Z,13.10
2022-09-17T07:22:45.124Z,13.50
2022-09-17T07:25:16.752Z,13.90
2022-09-17T07:27:48.867Z,14.30
2022-09-17T07:30:17.244Z,14.70
2022-09-17T07:32:45.159Z,14.90
2022-09-17T07:35:18.955Z,15.30
2022-09-17T07:37:56.502Z,15.60
2022-09-17T07:40:32.488Z,15.80
2022-09-17T07:43:16.468Z,16.10
2022-09-17T07:45:44.234Z,16.40
2022-09-17T07:48:14.207Z,16.60
2022-09-17T07:50:41.934Z,16.80
2022-09-17T07:53:10.341Z,17.00
2022-09-17T07:55:43.816Z,17.20
2022-09-17T07:58:14.180Z,17.40
2022-09-17T08:00:54.161Z,17.50
2022-09-17T08:03:24.604Z,17.70
2022-09-17T08:05:52.834Z,17.80
2022-09-17T08:08:25.526Z,18.00
2022-09-17T08:11:06.209Z,18.70
2022-09-17T08:13:41.513Z,18.60
2022-09-17T08:16:15.623Z,18.70
2022-09-17T08:18:55.631Z,19.00
2022-09-17T08:21:27.564Z,19.10
2022-09-17T08:24:02.754Z,19.20
2022-09-17T08:26:44.811Z,19.30
2022-09-17T08:29:14.260Z,19.50
2022-09-17T08:31:42.896Z,19.60
2022-09-17T08:34:13.438Z,19.70
2022-09-17T08:36:51.694Z,19.90
2022-09-17T08:39:33.980Z,20.10
2022-09-17T08:42:24.667Z,20.20
2022-09-17T08:45:03.827Z,20.20
2022-09-17T08:47:43.355Z,20.30
2022-09-17T08:50:39.448Z,20.40
2022-09-17T08:53:35.522Z,20.60
2022-09-17T08:56:13.664Z,20.90
2022-09-17T08:59:10.331Z,21.00
2022-09-17T09:01:53.799Z,21.10
2022-09-17T09:04:55.552Z,21.20
2022-09-17T09:07:43.491Z,21.40
2022-09-17T09:10:31.730Z,21.60
2022-09-17T09:13:01.172Z,21.70
2022-09-17T09:15:42.649Z,21.80
2022-09-17T09:18:38.179Z,21.70
2022-09-17T09:21:27.014Z,21.80
2022-09-17T09:24:05.753Z,22.00
2022-09-17T09:27:14.344Z,21.90
2022-09-17T09:30:04.523Z,22.10
2022-09-17T09:32:37.980Z,22.20
2022-09-17T09:35:34.332Z,22.30
2022-09-17T09:38:20.468Z,22.60
2022-09-17T09:41:24.230Z,22.80
2022-09-17T09:44:08.573Z,23.00
2022-09-17T09:47:04.912Z,23.10
2022-09-17T09:49:53.769Z,23.40
2022-09-17T09:52:43.231Z,23.50
2022-09-17T09:55:30.221Z,23.50
2022-09-17T09:58:22.995Z,23.60
2022-09-17T10:00:51.617Z,23.80
2022-09-17T10:03:53.739Z,24.00
2022-09-17T10:06:29.314Z,24.30
2022-09-17T10:08:57.760Z,24.50
2022-09-17T10:11:28.184Z,24.60
2022-09-17T10:14:28.120Z,24.80
2022-09-17T10:17:19.011Z,25.00
2022-09-17T10:20:12.789Z,25.00
2022-09-17T10:22:46.560Z,25.20
2022-09-17T10:25:34.920Z,25.30
2022-09-17T10:28:12.307Z,25.30
2022-09-17T10:30:57.280Z,25.20
2022-09-17T10:33:36.997Z,25.10
2022-09-17T10:36:16.215Z,25.30
2022-09-17T10:38:58.819Z,25.50
2022-09-17T10:41:29.811Z,25.60
2022-09-17T10:44:17.924Z,25.60
2022-09-17T10:46:58.947Z,25.80
2022-09-17T10:49:49.361Z,25.90
2022-09-17T10:52:31.885Z,25.90
2022-09-17T10:55:21.305Z,26.10
2022-09-17T10:58:02.160Z,26.30
2022-09-17T11:01:05.621Z,26.20
2022-09-17T11:04:04.721Z,26.30
2022-09-17T11:06:35.362Z,26.20
2022-09-17T11:09:29.112Z,26.30
2022-09-17T11:12:23.282Z,26.50
2022-09-17T11:15:59.625Z,26.90
2022-09-17T11:18:34.572Z,27.10
2022-09-17T11:21:14.037Z,27.40
2022-09-17T11:24:07.843Z,27.70
2022-09-17T11:26:57.511Z,28.10
2022-09-17T11:29:40.206Z,28.00
2022-09-17T11:32:20.075Z,27.40
2022-09-17T11:35:32.722Z,26.70
2022-09-17T11:38:27.661Z,26.40
2022-09-17T11:41:14.760Z,26.50
2022-09-17T11:43:59.933Z,26.60
2022-09-17T11:47:00.070Z,26.80
2022-09-17T11:49:33.597Z,27.10
2022-09-17T11:52:30.288Z,27.10
2022-09-17T11:55:20.699Z,27.50
2022-09-17T11:57:52.028Z,27.60
2022-09-17T12:00:26.055Z,27.70
2022-09-17T12:03:11.711Z,27.60
2022-09-17T12:05:45.128Z,27.50
2022-09-17T12:08:18.542Z,27.40
2022-09-17T12:10:57.134Z,27.40
2022-09-17T12:13:39.659Z,27.50
2022-09-17T12:16:12.391Z,27.90
2022-09-17T12:19:16.870Z,28.10
2022-09-17T12:22:10.640Z,28.20
2022-09-17T12:24:41.629Z,28.40
2022-09-17T12:27:43.493Z,28.40
2022-09-17T12:30:13.052Z,28.40
2022-09-17T12:33:18.307Z,28.30
2022-09-17T12:36:28.827Z,28.40
2022-09-17T12:39:30.564Z,28.40
2022-09-17T12:42:59.785Z,28.50
2022-09-17T12:45:40.429Z,28.10
2022-09-17T12:48:17.545Z,28.00
2022-09-17T12:51:14.570Z,27.80
2022-09-17T12:53:51.167Z,27.50
2022-09-17T12:56:48.495Z,27.10
2022-09-17T12:59:20.451Z,26.40
2022-09-17T13:01:55.450Z,25.50
2022-09-17T13:04:49.809Z,24.70
2022-09-17T13:07:34.605Z,23.90
2022-09-17T13:10:37.550Z,23.20
2022-09-17T13:13:11.098Z,22.60
2022-09-17T13:15:57.093Z,22.00
2022-09-17T13:18:41.703Z,21.50
2022-09-17T13:21:32.372Z,21.20
2022-09-17T13:24:00.532Z,20.90
2022-09-17T13:26:37.929Z,20.60
2022-09-17T13:29:10.260Z,20.50
2022-09-17T13:31:44.707Z,20.40
2022-09-17T13:34:25.807Z,20.20
2022-09-17T13:37:00.503Z,20.10
2022-09-17T13:39:41.387Z,19.90
2022-09-17T13:42:21.314Z,19.80
2022-09-17T13:45:16.260Z,19.70
2022-09-17T13:47:55.959Z,19.60
2022-09-17T13:50:43.772Z,19.60
2022-09-17T13:53:30.601Z,19.40
2022-09-17T13:56:01.289Z,19.30
2022-09-17T13:58:36.594Z,19.20
2022-09-17T14:01:14.900Z,19.20
2022-09-17T14:03:59.231Z,19.10
2022-09-17T14:06:30.023Z,19.00
2022-09-17T14:09:12.779Z,19.00
2022-09-17T14:11:43.851Z,18.90
2022-09-17T14:14:17.198Z,18.80
2022-09-17T14:16:55.259Z,18.80
2022-09-17T14:19:37.073Z,18.70
2022-09-17T14:22:17.603Z,18.70
2022-09-17T14:24:53.985Z,18.70
2022-09-17T14:27:21.823Z,18.60
2022-09-17T14:30:04.594Z,18.60
2022-09-17T14:32:59.948Z,18.60
2022-09-17T14:35:48.015Z,18.60
2022-09-17T14:38:20.416Z,18.60
2022-09-17T14:41:01.499Z,18.60
2022-09-17T14:43:39.708Z,18.60
2022-09-17T14:46:13.798Z,18.60
2022-09-17T14:48:41.659Z,18.60
2022-09-17T14:51:18.526Z,18.60
2022-09-17T14:54:06.899Z,18.70
2022-09-17T14:56:54.861Z,18.70
2022-09-17T14:59:55.753Z,18.70
2022-09-17T15:02:34.170Z,18.70
2022-09-17T15:05:36.413Z,18.70
2022-09-17T15:08:11.344Z,18.70
2022-09-17T15:10:49.027Z,18.60
2022-09-17T15:13:41.987Z,18.50
2022-09-17T15:16:19.785Z,18.50
2022-09-17T15:18:54.375Z,18.50
2022-09-17T15:21:31.371Z,18.40
2022-09-17T15:24:09.182Z,18.30
2022-09-17T15:26:41.163Z,18.20
2022-09-17T15:29:13.003Z,18.20
2022-09-17T15:31:41.380Z,18.10
2022-09-17T15:34:17.741Z,18.10
2022-09-17T15:37:27.716Z,18.10
2022-09-17T15:39:59.281Z,18.20
2022-09-17T15:42:30.272Z,18.20
2022-09-17T15:45:30.675Z,18.20
2022-09-17T15:48:01.710Z,18.20
2022-09-17T15:50:35.358Z,18.20
2022-09-17T15:53:14.703Z,18.20
2022-09-17T15:55:48.386Z,18.10
2022-09-17T15:58:28.440Z,18.10
2022-09-17T16:01:38.418Z,18.00
2022-09-17T16:04:21.008Z,17.90
2022-09-17T16:07:02.734Z,17.90
2022-09-17T16:09:36.659Z,17.80
2022-09-17T16:12:04.601Z,17.80
2022-09-17T16:14:36.581Z,17.70
2022-09-17T16:17:25.813Z,17.60
2022-09-17T16:19:56.827Z,17.60
2022-09-17T16:22:26.337Z,17.50
2022-09-17T16:24:53.973Z,17.40
2022-09-17T16:27:30.560Z,17.30
2022-09-17T16:30:13.414Z,17.30
2022-09-17T16:32:41.078Z,17.20
2022-09-17T16:35:23.168Z,17.10
2022-09-17T16:37:59.650Z,17.10
2022-09-17T16:40:31.738Z,17.00
2022-09-17T16:43:03.536Z,17.00
2022-09-17T16:45:40.765Z,16.90
2022-09-17T16:48:09.348Z,16.80
2022-09-17T16:50:45.191Z,16.80
2022-09-17T16:53:13.276Z,16.80
2022-09-17T16:55:45.540Z,16.70
2022-09-17T16:58:14.374Z,16.70
2022-09-17T17:00:45.428Z,16.60
2022-09-17T17:03:14.627Z,16.50
2022-09-17T17:05:45.628Z,16.50
2022-09-17T17:08:14.806Z,16.50
2022-09-17T17:10:42.392Z,16.40
2022-09-17T17:13:10.161Z,16.40
2022-09-17T17:15:41.115Z,16.30
2022-09-17T17:18:08.860Z,16.30
2022-09-17T17:20:45.186Z,16.20
2022-09-17T17:23:13.681Z,16.10
2022-09-17T17:25:43.908Z,16.10
2022-09-17T17:28:11.759Z,16.00
2022-09-17T17:30:39.686Z,16.00
2022-09-17T17:33:07.420Z,15.90
2022-09-17T17:35:46.273Z,15.90
2022-09-17T17:38:14.001Z,15.80
2022-09-17T17:40:41.741Z,15.80
2022-09-17T17:43:12.724Z,15.70
2022-09-17T17:45:40.913Z,15.60
2022-09-17T17:48:11.465Z,15.60
2022-09-17T17:50:41.320Z,15.50
2022-09-17T17:53:09.170Z,15.40
2022-09-17T17:55:39.526Z,15.40
2022-09-17T17:58:07.282Z,15.30
2022-09-17T18:00:36.760Z,15.20
2022-09-17T18:03:04.727Z,15.20
2022-09-17T18:05:35.828Z,15.10
2022-09-17T18:08:09.433Z,15.00
2022-09-17T18:10:37.406Z,14.90
2022-09-17T18:13:06.302Z,14.80
2022-09-17T18:15:35.213Z,14.80
2022-09-17T18:18:06.629Z,14.70
2022-09-17T18:20:42.952Z,14.60
2022-09-17T18:23:13.568Z,14.50
2022-09-17T18:25:41.388Z,14.40
2022-09-17T18:28:11.837Z,14.30
2022-09-17T18:30:40.015Z,14.20
2022-09-17T18:33:14.564Z,14.10
2022-09-17T18:35:47.490Z,14.00
2022-09-17T18:38:16.441Z,13.90
2022-09-17T18:40:48.019Z,13.80
2022-09-17T18:43:17.657Z,13.70
2022-09-17T18:46:08.431Z,13.60
2022-09-17T18:48:36.791Z,13.50
2022-09-17T18:51:07.639Z,13.40
2022-09-17T18:53:44.278Z,13.30
2022-09-17T18:56:23.185Z,13.20
2022-09-17T18:59:07.973Z,13.10
2022-09-17T19:01:36.597Z,12.70
2022-09-17T19:04:07.931Z,13.00
2022-09-17T19:06:36.210Z,12.90
2022-09-17T19:09:05.175Z,12.80
2022-09-17T19:11:36.245Z,12.70
2022-09-17T19:14:04.293Z,12.70
2022-09-17T19:16:32.707Z,12.60
2022-09-17T19:19:03.766Z,12.50
2022-09-17T19:21:38.962Z,12.50
2022-09-17T19:24:07.387Z,12.40
2022-09-17T19:26:35.203Z,12.40
2022-09-17T19:29:03.055Z,12.30
2022-09-17T19:31:30.801Z,12.20
2022-09-17T19:34:01.470Z,12.20
2022-09-17T19:36:29.021Z,12.10
2022-09-17T19:39:02.524Z,12.10
2022-09-17T19:41:36.229Z,12.00
2022-09-17T19:44:06.762Z,12.00
2022-09-17T19:46:34.490Z,12.10
2022-09-17T19:49:02.436Z,11.90
2022-09-17T19:51:37.706Z,11.90
2022-09-17T19:54:07.092Z,11.80
2022-09-17T19:56:34.744Z,11.80
2022-09-17T19:59:02.856Z,11.70
2022-09-17T20:01:33.616Z,11.70
2022-09-17T20:04:01.308Z,11.60
2022-09-17T20:06:32.856Z,11.60
2022-09-17T20:09:01.890Z,11.60
2022-09-17T20:11:29.535Z,11.50
2022-09-17T20:13:58.907Z,11.50
2022-09-17T20:16:27.334Z,11.50
2022-09-17T20:18:55.615Z,11.40
2022-09-17T20:21:30.059Z,11.40
2022-09-17T20:23:58.454Z,11.40
2022-09-17T20:26:28.417Z,11.30
2022-09-17T20:28:57.355Z,11.30
2022-09-17T20:31:30.556Z,11.30
2022-09-17T20:34:02.343Z,11.30
2022-09-17T20:36:36.385Z,11.20
2022-09-17T20:39:16.548Z,11.10
2022-09-17T20:41:53.334Z,11.10
2022-09-17T20:44:21.673Z,11.10
2022-09-17T20:46:53.796Z,11.10
2022-09-17T20:49:21.884Z,11.10
2022-09-17T20:51:54.320Z,11.00
2022-09-17T20:54:22.145Z,11.00
2022-09-17T20:56:49.924Z,11.00
2022-09-17T20:59:25.035Z,10.90
2022-09-17T21:01:53.769Z,10.90
2022-09-17T21:04:24.635Z,10.90
2022-09-17T21:06:56.095Z,10.80
2022-09-17T21:09:23.849Z,10.70
2022-09-17T21:11:56.301Z,10.70
2022-09-17T21:14:27.061Z,10.70
2022-09-17T21:16:54.944Z,10.60
2022-09-17T21:19:29.424Z,10.60
2022-09-17T21:21:57.835Z,10.50
2022-09-17T21:24:25.512Z,10.50
2022-09-17T21:27:01.596Z,10.40
2022-09-17T21:29:30.201Z,10.40
2022-09-17T21:31:57.836Z,10.40
2022-09-17T21:34:28.234Z,10.30
2022-09-17T21:36:56.850Z,10.30
2022-09-17T21:39:25.608Z,10.30
2022-09-17T21:41:55.717Z,10.30
2022-09-17T21:44:25.590Z,10.30
2022-09-17T21:46:57.530Z,10.20
2022-09-17T21:49:33.014Z,10.20
2022-09-17T21:52:03.463Z,10.20
2022-09-17T21:54:31.140Z,10.20
2022-09-17T21:57:02.602Z,10.20
2022-09-17T21:59:30.691Z,10.10
2022-09-17T22:01:59.337Z,10.10
2022-09-17T22:04:27.180Z,10.10
2022-09-17T22:06:59.235Z,10.10
2022-09-17T22:09:35.822Z,10.00
2022-09-17T22:12:07.685Z,10.00
2022-09-17T22:14:48.106Z,10.00
2022-09-17T22:17:17.191Z,10.00
2022-09-17T22:19:53.619Z,10.00
2022-09-17T22:22:23.879Z,10.00
2022-09-17T22:25:02.966Z,10.00
2022-09-17T22:27:33.334Z,10.00
2022-09-17T22:30:04.896Z,10.00
2022-09-17T22:32:34.046Z,9.90
2022-09-17T22:35:08.083Z,9.90
2022-09-17T22:37:35.757Z,9.90
2022-09-17T22:40:06.125Z,9.80
2022-09-17T22:42:33.823Z,9.50
2022-09-17T22:47:56.737Z,9.80
2022-09-17T22:50:27.652Z,9.90
2022-09-17T22:52:58.272Z,9.90
2022-09-17T22:55:25.879Z,9.90
2022-09-17T22:57:57.893Z,9.90
2022-09-17T23:00:29.675Z,9.90
2022-09-17T23:02:57.539Z,10.00
2022-09-17T23:05:31.244Z,9.90
2022-09-17T23:07:59.206Z,10.00
2022-09-17T23:10:28.193Z,10.00
2022-09-17T23:12:55.937Z,10.00
2022-09-17T23:15:29.402Z,10.00
2022-09-17T23:17:57.429Z,10.00
2022-09-17T23:20:28.491Z,10.00
2022-09-17T23:23:04.138Z,10.00
2022-09-17T23:25:34.651Z,10.00
2022-09-17T23:28:08.564Z,10.00
2022-09-17T23:30:41.673Z,10.00
2022-09-17T23:33:09.647Z,10.10
2022-09-17T23:35:43.436Z,10.10
2022-09-17T23:38:11.423Z,10.10
2022-09-17T23:40:49.582Z,10.10
2022-09-17T23:43:18.722Z,10.20
2022-09-17T23:45:56.122Z,10.20
2022-09-17T23:48:24.597Z,10.60
2022-09-17T23:50:55.293Z,10.20
2022-09-17T23:53:22.932Z,10.30
2022-09-17T23:55:51.131Z,10.30
2022-09-17T23:58:22.374Z,10.30
